sensor_id;sensor_type;location;lat;lon;timestamp;P1;durP1;ratioP1;P2;durP2;ratioP2
58242;SDS011;50118;53.232;8.252;2023-11-19T00:00:18;23.60;;;16.48;;
58242;SDS011;50118;53.232;8.252;2023-11-19T00:02:44;23.35;;;16.25;;
58242;SDS011;50118;53.232;8.252;2023-11-19T00:05:09;24.95;;;17.05;;
58242;SDS011;50118;53.232;8.252;2023-11-19T00:07:36;27.00;;;17.52;;
58242;SDS011;50118;53.232;8.252;2023-11-19T00:10:06;26.95;;;17.85;;
58242;SDS011;50118;53.232;8.252;2023-11-19T00:12:39;29.85;;;18.23;;
58242;SDS011;50118;53.232;8.252;2023-11-19T00:15:09;26.50;;;16.85;;
58242;SDS011;50118;53.232;8.252;2023-11-19T00:17:39;28.90;;;17.77;;
58242;SDS011;50118;53.232;8.252;2023-11-19T00:20:06;29.48;;;17.55;;
58242;SDS011;50118;53.232;8.252;2023-11-19T00:22:32;30.48;;;18.23;;
58242;SDS011;50118;53.232;8.252;2023-11-19T00:24:57;30.25;;;18.60;;
58242;SDS011;50118;53.232;8.252;2023-11-19T00:27:24;32.17;;;17.95;;
58242;SDS011;50118;53.232;8.252;2023-11-19T00:29:50;30.00;;;17.40;;
58242;SDS011;50118;53.232;8.252;2023-11-19T00:32:15;33.85;;;18.65;;
58242;SDS011;50118;53.232;8.252;2023-11-19T00:34:43;33.47;;;18.52;;
58242;SDS011;50118;53.232;8.252;2023-11-19T00:37:09;32.40;;;18.55;;
58242;SDS011;50118;53.232;8.252;2023-11-19T00:39:35;32.45;;;18.30;;
58242;SDS011;50118;53.232;8.252;2023-11-19T00:42:00;31.55;;;18.85;;
58242;SDS011;50118;53.232;8.252;2023-11-19T00:44:25;31.60;;;18.55;;
58242;SDS011;50118;53.232;8.252;2023-11-19T00:46:51;31.70;;;18.23;;
58242;SDS011;50118;53.232;8.252;2023-11-19T00:49:16;32.03;;;18.17;;
58242;SDS011;50118;53.232;8.252;2023-11-19T00:51:42;30.95;;;17.85;;
58242;SDS011;50118;53.232;8.252;2023-11-19T00:54:07;31.50;;;17.60;;
58242;SDS011;50118;53.232;8.252;2023-11-19T00:56:32;31.25;;;17.80;;
58242;SDS011;50118;53.232;8.252;2023-11-19T00:58:58;29.52;;;17.08;;
58242;SDS011;50118;53.232;8.252;2023-11-19T01:01:25;30.95;;;17.88;;
58242;SDS011;50118;53.232;8.252;2023-11-19T01:03:50;33.10;;;17.10;;
58242;SDS011;50118;53.232;8.252;2023-11-19T01:06:26;29.40;;;17.38;;
58242;SDS011;50118;53.232;8.252;2023-11-19T01:08:52;33.72;;;18.75;;
58242;SDS011;50118;53.232;8.252;2023-11-19T01:11:21;34.75;;;18.15;;
58242;SDS011;50118;53.232;8.252;2023-11-19T01:13:47;34.22;;;19.55;;
58242;SDS011;50118;53.232;8.252;2023-11-19T01:16:13;35.60;;;18.48;;
58242;SDS011;50118;53.232;8.252;2023-11-19T01:18:38;35.38;;;20.10;;
58242;SDS011;50118;53.232;8.252;2023-11-19T01:21:04;32.70;;;18.38;;
58242;SDS011;50118;53.232;8.252;2023-11-19T01:23:30;33.38;;;17.95;;
58242;SDS011;50118;53.232;8.252;2023-11-19T01:25:55;30.75;;;17.17;;
58242;SDS011;50118;53.232;8.252;2023-11-19T01:28:20;30.55;;;17.42;;
58242;SDS011;50118;53.232;8.252;2023-11-19T01:30:46;27.88;;;15.88;;
58242;SDS011;50118;53.232;8.252;2023-11-19T01:33:11;30.33;;;16.80;;
58242;SDS011;50118;53.232;8.252;2023-11-19T01:35:36;27.30;;;14.93;;
58242;SDS011;50118;53.232;8.252;2023-11-19T01:38:02;28.98;;;15.25;;
58242;SDS011;50118;53.232;8.252;2023-11-19T01:40:27;27.40;;;14.60;;
58242;SDS011;50118;53.232;8.252;2023-11-19T01:42:53;27.23;;;14.73;;
58242;SDS011;50118;53.232;8.252;2023-11-19T01:45:27;26.95;;;14.95;;
58242;SDS011;50118;53.232;8.252;2023-11-19T01:47:54;27.23;;;15.00;;
58242;SDS011;50118;53.232;8.252;2023-11-19T01:50:20;25.45;;;14.13;;
58242;SDS011;50118;53.232;8.252;2023-11-19T01:52:47;26.95;;;15.50;;
58242;SDS011;50118;53.232;8.252;2023-11-19T01:55:13;28.52;;;15.50;;
58242;SDS011;50118;53.232;8.252;2023-11-19T01:57:39;24.85;;;14.07;;
58242;SDS011;50118;53.232;8.252;2023-11-19T02:00:06;24.58;;;14.35;;
58242;SDS011;50118;53.232;8.252;2023-11-19T02:02:36;26.98;;;14.90;;
58242;SDS011;50118;53.232;8.252;2023-11-19T02:05:02;27.85;;;15.85;;
58242;SDS011;50118;53.232;8.252;2023-11-19T02:07:28;27.17;;;14.90;;
58242;SDS011;50118;53.232;8.252;2023-11-19T02:09:54;27.15;;;14.95;;
58242;SDS011;50118;53.232;8.252;2023-11-19T02:12:19;31.45;;;17.15;;
58242;SDS011;50118;53.232;8.252;2023-11-19T02:14:45;27.33;;;16.10;;
58242;SDS011;50118;53.232;8.252;2023-11-19T02:17:30;31.38;;;16.75;;
58242;SDS011;50118;53.232;8.252;2023-11-19T02:19:59;28.17;;;15.25;;
58242;SDS011;50118;53.232;8.252;2023-11-19T02:22:25;33.10;;;16.83;;
58242;SDS011;50118;53.232;8.252;2023-11-19T02:24:51;33.10;;;17.70;;
58242;SDS011;50118;53.232;8.252;2023-11-19T02:30:02;33.40;;;17.38;;
58242;SDS011;50118;53.232;8.252;2023-11-19T02:32:33;34.22;;;17.83;;
58242;SDS011;50118;53.232;8.252;2023-11-19T02:34:59;35.50;;;17.17;;
58242;SDS011;50118;53.232;8.252;2023-11-19T02:37:24;36.97;;;17.77;;
58242;SDS011;50118;53.232;8.252;2023-11-19T02:39:49;35.63;;;17.58;;
58242;SDS011;50118;53.232;8.252;2023-11-19T02:42:15;36.30;;;18.02;;
58242;SDS011;50118;53.232;8.252;2023-11-19T02:44:43;36.25;;;17.23;;
58242;SDS011;50118;53.232;8.252;2023-11-19T02:47:10;37.95;;;18.75;;
58242;SDS011;50118;53.232;8.252;2023-11-19T02:49:35;37.45;;;18.23;;
58242;SDS011;50118;53.232;8.252;2023-11-19T02:52:02;37.17;;;19.23;;
58242;SDS011;50118;53.232;8.252;2023-11-19T02:54:30;37.03;;;18.10;;
58242;SDS011;50118;53.232;8.252;2023-11-19T02:56:59;35.88;;;18.27;;
58242;SDS011;50118;53.232;8.252;2023-11-19T02:59:26;40.53;;;19.02;;
58242;SDS011;50118;53.232;8.252;2023-11-19T03:01:53;37.92;;;18.08;;
58242;SDS011;50118;53.232;8.252;2023-11-19T03:04:19;35.28;;;18.92;;
58242;SDS011;50118;53.232;8.252;2023-11-19T03:06:48;35.55;;;19.17;;
58242;SDS011;50118;53.232;8.252;2023-11-19T03:09:13;37.30;;;18.80;;
58242;SDS011;50118;53.232;8.252;2023-11-19T03:11:39;41.38;;;19.50;;
58242;SDS011;50118;53.232;8.252;2023-11-19T03:14:04;40.90;;;19.92;;
58242;SDS011;50118;53.232;8.252;2023-11-19T03:16:30;43.42;;;20.40;;
58242;SDS011;50118;53.232;8.252;2023-11-19T03:18:55;42.67;;;19.45;;
58242;SDS011;50118;53.232;8.252;2023-11-19T03:21:30;44.35;;;19.55;;
58242;SDS011;50118;53.232;8.252;2023-11-19T03:23:59;35.10;;;17.67;;
58242;SDS011;50118;53.232;8.252;2023-11-19T03:26:26;41.70;;;18.83;;
58242;SDS011;50118;53.232;8.252;2023-11-19T03:28:52;36.83;;;17.90;;
58242;SDS011;50118;53.232;8.252;2023-11-19T03:31:18;41.88;;;18.65;;
58242;SDS011;50118;53.232;8.252;2023-11-19T03:33:43;41.00;;;18.58;;
58242;SDS011;50118;53.232;8.252;2023-11-19T03:36:10;34.78;;;17.40;;
58242;SDS011;50118;53.232;8.252;2023-11-19T03:38:35;41.55;;;18.73;;
58242;SDS011;50118;53.232;8.252;2023-11-19T03:41:01;37.35;;;16.73;;
58242;SDS011;50118;53.232;8.252;2023-11-19T03:43:35;36.22;;;17.38;;
58242;SDS011;50118;53.232;8.252;2023-11-19T03:46:00;35.92;;;17.42;;
58242;SDS011;50118;53.232;8.252;2023-11-19T03:48:26;38.47;;;17.00;;
58242;SDS011;50118;53.232;8.252;2023-11-19T03:50:51;36.10;;;16.73;;
58242;SDS011;50118;53.232;8.252;2023-11-19T03:53:16;38.03;;;16.85;;
58242;SDS011;50118;53.232;8.252;2023-11-19T03:55:43;35.50;;;16.17;;
58242;SDS011;50118;53.232;8.252;2023-11-19T03:58:09;39.95;;;15.98;;
58242;SDS011;50118;53.232;8.252;2023-11-19T04:00:34;37.22;;;15.20;;
58242;SDS011;50118;53.232;8.252;2023-11-19T04:03:00;35.88;;;15.15;;
58242;SDS011;50118;53.232;8.252;2023-11-19T04:05:25;33.22;;;15.10;;
58242;SDS011;50118;53.232;8.252;2023-11-19T04:07:51;38.45;;;15.30;;
58242;SDS011;50118;53.232;8.252;2023-11-19T04:10:16;39.70;;;13.77;;
58242;SDS011;50118;53.232;8.252;2023-11-19T04:12:42;40.40;;;14.73;;
58242;SDS011;50118;53.232;8.252;2023-11-19T04:15:08;36.90;;;15.05;;
58242;SDS011;50118;53.232;8.252;2023-11-19T04:17:33;36.83;;;14.85;;
58242;SDS011;50118;53.232;8.252;2023-11-19T04:19:59;39.22;;;15.27;;
58242;SDS011;50118;53.232;8.252;2023-11-19T04:22:24;37.45;;;14.18;;
58242;SDS011;50118;53.232;8.252;2023-11-19T04:24:49;38.75;;;15.35;;
58242;SDS011;50118;53.232;8.252;2023-11-19T04:27:15;36.20;;;14.82;;
58242;SDS011;50118;53.232;8.252;2023-11-19T04:29:40;36.38;;;14.20;;
58242;SDS011;50118;53.232;8.252;2023-11-19T04:32:06;37.38;;;14.43;;
58242;SDS011;50118;53.232;8.252;2023-11-19T04:34:32;38.47;;;13.23;;
58242;SDS011;50118;53.232;8.252;2023-11-19T04:36:57;42.50;;;14.13;;
58242;SDS011;50118;53.232;8.252;2023-11-19T04:39:26;39.17;;;12.95;;
58242;SDS011;50118;53.232;8.252;2023-11-19T04:41:51;36.08;;;13.48;;
58242;SDS011;50118;53.232;8.252;2023-11-19T04:44:18;36.83;;;12.40;;
58242;SDS011;50118;53.232;8.252;2023-11-19T04:46:43;34.42;;;12.00;;
58242;SDS011;50118;53.232;8.252;2023-11-19T04:49:09;40.53;;;12.02;;
58242;SDS011;50118;53.232;8.252;2023-11-19T04:51:43;40.33;;;12.27;;
58242;SDS011;50118;53.232;8.252;2023-11-19T04:54:12;27.63;;;10.73;;
58242;SDS011;50118;53.232;8.252;2023-11-19T04:56:37;31.27;;;10.70;;
58242;SDS011;50118;53.232;8.252;2023-11-19T04:59:03;35.17;;;10.98;;
58242;SDS011;50118;53.232;8.252;2023-11-19T05:01:30;38.45;;;11.40;;
58242;SDS011;50118;53.232;8.252;2023-11-19T05:03:59;38.25;;;10.80;;
58242;SDS011;50118;53.232;8.252;2023-11-19T05:06:31;28.52;;;11.00;;
58242;SDS011;50118;53.232;8.252;2023-11-19T05:08:58;28.88;;;10.23;;
58242;SDS011;50118;53.232;8.252;2023-11-19T05:11:26;34.28;;;10.18;;
58242;SDS011;50118;53.232;8.252;2023-11-19T05:13:53;33.38;;;10.50;;
58242;SDS011;50118;53.232;8.252;2023-11-19T05:16:18;31.92;;;10.10;;
58242;SDS011;50118;53.232;8.252;2023-11-19T05:18:45;28.90;;;9.80;;
58242;SDS011;50118;53.232;8.252;2023-11-19T05:21:11;31.52;;;9.77;;
58242;SDS011;50118;53.232;8.252;2023-11-19T05:23:36;30.98;;;9.80;;
58242;SDS011;50118;53.232;8.252;2023-11-19T05:26:02;31.27;;;9.60;;
58242;SDS011;50118;53.232;8.252;2023-11-19T05:28:27;27.13;;;8.63;;
58242;SDS011;50118;53.232;8.252;2023-11-19T05:30:53;31.52;;;8.93;;
58242;SDS011;50118;53.232;8.252;2023-11-19T05:33:18;33.33;;;8.73;;
58242;SDS011;50118;53.232;8.252;2023-11-19T05:35:43;32.92;;;8.32;;
58242;SDS011;50118;53.232;8.252;2023-11-19T05:38:09;34.63;;;8.35;;
58242;SDS011;50118;53.232;8.252;2023-11-19T05:40:34;37.80;;;8.48;;
58242;SDS011;50118;53.232;8.252;2023-11-19T05:43:00;33.67;;;8.68;;
58242;SDS011;50118;53.232;8.252;2023-11-19T05:45:26;32.92;;;7.50;;
58242;SDS011;50118;53.232;8.252;2023-11-19T05:47:52;36.30;;;7.47;;
58242;SDS011;50118;53.232;8.252;2023-11-19T05:50:17;32.00;;;7.13;;
58242;SDS011;50118;53.232;8.252;2023-11-19T05:52:43;28.15;;;6.43;;
58242;SDS011;50118;53.232;8.252;2023-11-19T05:55:09;36.13;;;6.93;;
58242;SDS011;50118;53.232;8.252;2023-11-19T05:57:35;37.13;;;7.07;;
58242;SDS011;50118;53.232;8.252;2023-11-19T06:00:01;28.98;;;6.57;;
58242;SDS011;50118;53.232;8.252;2023-11-19T06:02:26;31.92;;;6.47;;
58242;SDS011;50118;53.232;8.252;2023-11-19T06:04:52;35.17;;;6.70;;
58242;SDS011;50118;53.232;8.252;2023-11-19T06:07:18;32.95;;;6.57;;
58242;SDS011;50118;53.232;8.252;2023-11-19T06:09:44;40.22;;;6.97;;
58242;SDS011;50118;53.232;8.252;2023-11-19T06:12:10;28.02;;;5.75;;
58242;SDS011;50118;53.232;8.252;2023-11-19T06:14:35;28.13;;;6.10;;
58242;SDS011;50118;53.232;8.252;2023-11-19T06:17:01;25.08;;;5.55;;
58242;SDS011;50118;53.232;8.252;2023-11-19T06:19:26;34.13;;;6.43;;
58242;SDS011;50118;53.232;8.252;2023-11-19T06:21:52;32.95;;;6.70;;
58242;SDS011;50118;53.232;8.252;2023-11-19T06:24:17;27.23;;;6.13;;
58242;SDS011;50118;53.232;8.252;2023-11-19T06:26:43;38.00;;;6.75;;
58242;SDS011;50118;53.232;8.252;2023-11-19T06:29:08;27.60;;;5.15;;
58242;SDS011;50118;53.232;8.252;2023-11-19T06:31:34;37.28;;;6.32;;
58242;SDS011;50118;53.232;8.252;2023-11-19T06:33:59;32.75;;;6.13;;
58242;SDS011;50118;53.232;8.252;2023-11-19T06:36:24;27.15;;;5.82;;
58242;SDS011;50118;53.232;8.252;2023-11-19T06:38:51;37.47;;;6.45;;
58242;SDS011;50118;53.232;8.252;2023-11-19T06:41:17;30.73;;;6.82;;
58242;SDS011;50118;53.232;8.252;2023-11-19T06:43:42;34.10;;;6.38;;
58242;SDS011;50118;53.232;8.252;2023-11-19T06:46:15;35.05;;;6.40;;
58242;SDS011;50118;53.232;8.252;2023-11-19T06:48:44;39.80;;;7.07;;
58242;SDS011;50118;53.232;8.252;2023-11-19T06:51:10;39.35;;;6.32;;
58242;SDS011;50118;53.232;8.252;2023-11-19T06:53:36;30.00;;;6.18;;
58242;SDS011;50118;53.232;8.252;2023-11-19T06:56:01;28.48;;;5.97;;
58242;SDS011;50118;53.232;8.252;2023-11-19T06:58:31;29.48;;;5.70;;
58242;SDS011;50118;53.232;8.252;2023-11-19T07:00:57;33.80;;;6.22;;
58242;SDS011;50118;53.232;8.252;2023-11-19T07:03:23;24.88;;;5.85;;
58242;SDS011;50118;53.232;8.252;2023-11-19T07:05:48;37.13;;;6.35;;
58242;SDS011;50118;53.232;8.252;2023-11-19T07:08:13;30.52;;;5.45;;
58242;SDS011;50118;53.232;8.252;2023-11-19T07:10:39;28.20;;;5.95;;
58242;SDS011;50118;53.232;8.252;2023-11-19T07:13:04;27.90;;;5.57;;
58242;SDS011;50118;53.232;8.252;2023-11-19T07:15:31;27.80;;;5.00;;
58242;SDS011;50118;53.232;8.252;2023-11-19T07:17:57;30.45;;;6.18;;
58242;SDS011;50118;53.232;8.252;2023-11-19T07:20:24;32.08;;;6.25;;
58242;SDS011;50118;53.232;8.252;2023-11-19T07:22:51;35.38;;;6.75;;
58242;SDS011;50118;53.232;8.252;2023-11-19T07:25:17;32.65;;;5.63;;
58242;SDS011;50118;53.232;8.252;2023-11-19T07:27:42;30.13;;;5.38;;
58242;SDS011;50118;53.232;8.252;2023-11-19T07:30:08;34.70;;;6.47;;
58242;SDS011;50118;53.232;8.252;2023-11-19T07:32:34;37.95;;;6.35;;
58242;SDS011;50118;53.232;8.252;2023-11-19T07:34:59;40.70;;;6.40;;
58242;SDS011;50118;53.232;8.252;2023-11-19T07:37:24;36.75;;;7.00;;
58242;SDS011;50118;53.232;8.252;2023-11-19T07:39:50;34.10;;;5.95;;
58242;SDS011;50118;53.232;8.252;2023-11-19T07:42:16;29.30;;;6.10;;
58242;SDS011;50118;53.232;8.252;2023-11-19T07:44:41;37.90;;;6.55;;
58242;SDS011;50118;53.232;8.252;2023-11-19T07:47:06;34.50;;;5.65;;
58242;SDS011;50118;53.232;8.252;2023-11-19T07:49:32;25.20;;;4.93;;
58242;SDS011;50118;53.232;8.252;2023-11-19T07:51:58;32.17;;;6.38;;
58242;SDS011;50118;53.232;8.252;2023-11-19T07:54:23;31.98;;;6.10;;
58242;SDS011;50118;53.232;8.252;2023-11-19T07:56:49;33.28;;;5.88;;
58242;SDS011;50118;53.232;8.252;2023-11-19T07:59:15;33.67;;;5.88;;
58242;SDS011;50118;53.232;8.252;2023-11-19T08:01:41;35.05;;;6.07;;
58242;SDS011;50118;53.232;8.252;2023-11-19T08:04:06;34.85;;;5.95;;
58242;SDS011;50118;53.232;8.252;2023-11-19T08:06:32;27.00;;;5.57;;
58242;SDS011;50118;53.232;8.252;2023-11-19T08:08:57;25.65;;;6.15;;
58242;SDS011;50118;53.232;8.252;2023-11-19T08:11:23;26.67;;;5.55;;
58242;SDS011;50118;53.232;8.252;2023-11-19T08:13:49;28.80;;;5.35;;
58242;SDS011;50118;53.232;8.252;2023-11-19T08:16:14;30.02;;;5.60;;
58242;SDS011;50118;53.232;8.252;2023-11-19T08:18:43;28.90;;;5.75;;
58242;SDS011;50118;53.232;8.252;2023-11-19T08:21:08;29.70;;;5.22;;
58242;SDS011;50118;53.232;8.252;2023-11-19T08:23:35;31.98;;;5.60;;
58242;SDS011;50118;53.232;8.252;2023-11-19T08:26:01;30.50;;;6.10;;
58242;SDS011;50118;53.232;8.252;2023-11-19T08:28:26;28.30;;;5.57;;
58242;SDS011;50118;53.232;8.252;2023-11-19T08:30:52;29.70;;;5.63;;
58242;SDS011;50118;53.232;8.252;2023-11-19T08:33:18;30.48;;;6.63;;
58242;SDS011;50118;53.232;8.252;2023-11-19T08:35:43;26.70;;;5.82;;
58242;SDS011;50118;53.232;8.252;2023-11-19T08:38:10;31.60;;;5.78;;
58242;SDS011;50118;53.232;8.252;2023-11-19T08:40:35;28.00;;;5.90;;
58242;SDS011;50118;53.232;8.252;2023-11-19T08:43:01;25.48;;;4.90;;
58242;SDS011;50118;53.232;8.252;2023-11-19T08:45:26;27.15;;;5.90;;
58242;SDS011;50118;53.232;8.252;2023-11-19T08:47:52;26.88;;;5.30;;
58242;SDS011;50118;53.232;8.252;2023-11-19T08:50:17;28.25;;;5.05;;
58242;SDS011;50118;53.232;8.252;2023-11-19T08:52:42;25.20;;;5.43;;
58242;SDS011;50118;53.232;8.252;2023-11-19T08:55:08;27.83;;;5.35;;
58242;SDS011;50118;53.232;8.252;2023-11-19T08:57:34;31.15;;;5.55;;
58242;SDS011;50118;53.232;8.252;2023-11-19T09:00:00;33.38;;;6.28;;
58242;SDS011;50118;53.232;8.252;2023-11-19T09:02:25;28.15;;;5.55;;
58242;SDS011;50118;53.232;8.252;2023-11-19T09:04:51;28.80;;;5.82;;
58242;SDS011;50118;53.232;8.252;2023-11-19T09:07:16;25.40;;;5.22;;
58242;SDS011;50118;53.232;8.252;2023-11-19T09:09:42;28.80;;;5.13;;
58242;SDS011;50118;53.232;8.252;2023-11-19T09:12:07;27.30;;;5.53;;
58242;SDS011;50118;53.232;8.252;2023-11-19T09:14:33;30.67;;;5.38;;
58242;SDS011;50118;53.232;8.252;2023-11-19T09:16:58;32.35;;;5.82;;
58242;SDS011;50118;53.232;8.252;2023-11-19T09:19:24;28.85;;;5.72;;
58242;SDS011;50118;53.232;8.252;2023-11-19T09:21:51;23.73;;;4.88;;
58242;SDS011;50118;53.232;8.252;2023-11-19T09:24:18;29.48;;;5.50;;
58242;SDS011;50118;53.232;8.252;2023-11-19T09:26:43;29.92;;;5.45;;
58242;SDS011;50118;53.232;8.252;2023-11-19T09:29:09;30.48;;;5.50;;
58242;SDS011;50118;53.232;8.252;2023-11-19T09:31:34;28.08;;;5.97;;
58242;SDS011;50118;53.232;8.252;2023-11-19T09:34:00;30.92;;;5.65;;
58242;SDS011;50118;53.232;8.252;2023-11-19T09:36:26;31.05;;;5.75;;
58242;SDS011;50118;53.232;8.252;2023-11-19T09:38:51;33.17;;;5.95;;
58242;SDS011;50118;53.232;8.252;2023-11-19T09:41:17;31.83;;;5.45;;
58242;SDS011;50118;53.232;8.252;2023-11-19T09:43:44;31.35;;;5.97;;
58242;SDS011;50118;53.232;8.252;2023-11-19T09:46:10;29.50;;;5.35;;
58242;SDS011;50118;53.232;8.252;2023-11-19T09:48:37;36.53;;;6.07;;
58242;SDS011;50118;53.232;8.252;2023-11-19T09:51:06;26.88;;;5.57;;
58242;SDS011;50118;53.232;8.252;2023-11-19T09:53:33;31.58;;;5.53;;
58242;SDS011;50118;53.232;8.252;2023-11-19T09:55:59;22.08;;;4.93;;
58242;SDS011;50118;53.232;8.252;2023-11-19T09:58:28;27.83;;;4.93;;
58242;SDS011;50118;53.232;8.252;2023-11-19T10:00:54;27.20;;;4.78;;
58242;SDS011;50118;53.232;8.252;2023-11-19T10:03:19;25.60;;;5.32;;
58242;SDS011;50118;53.232;8.252;2023-11-19T10:05:48;24.20;;;4.93;;
58242;SDS011;50118;53.232;8.252;2023-11-19T10:08:13;28.73;;;5.47;;
58242;SDS011;50118;53.232;8.252;2023-11-19T10:10:39;25.77;;;5.10;;
58242;SDS011;50118;53.232;8.252;2023-11-19T10:13:04;26.00;;;5.07;;
58242;SDS011;50118;53.232;8.252;2023-11-19T10:15:33;32.05;;;6.00;;
58242;SDS011;50118;53.232;8.252;2023-11-19T10:18:02;27.83;;;5.25;;
58242;SDS011;50118;53.232;8.252;2023-11-19T10:20:34;29.98;;;6.22;;
58242;SDS011;50118;53.232;8.252;2023-11-19T10:23:01;26.88;;;5.10;;
58242;SDS011;50118;53.232;8.252;2023-11-19T10:25:28;36.10;;;5.72;;
58242;SDS011;50118;53.232;8.252;2023-11-19T10:27:54;25.65;;;5.47;;
58242;SDS011;50118;53.232;8.252;2023-11-19T10:30:21;28.58;;;5.63;;
58242;SDS011;50118;53.232;8.252;2023-11-19T10:33:10;25.30;;;5.32;;
58242;SDS011;50118;53.232;8.252;2023-11-19T10:36:08;28.98;;;5.45;;
58242;SDS011;50118;53.232;8.252;2023-11-19T10:38:27;33.63;;;6.15;;
58242;SDS011;50118;53.232;8.252;2023-11-19T10:40:53;32.40;;;6.20;;
58242;SDS011;50118;53.232;8.252;2023-11-19T10:43:19;26.98;;;5.28;;
58242;SDS011;50118;53.232;8.252;2023-11-19T10:45:47;30.95;;;5.85;;
58242;SDS011;50118;53.232;8.252;2023-11-19T10:48:13;25.80;;;5.68;;
58242;SDS011;50118;53.232;8.252;2023-11-19T10:50:40;25.20;;;5.45;;
58242;SDS011;50118;53.232;8.252;2023-11-19T10:53:07;30.75;;;6.72;;
58242;SDS011;50118;53.232;8.252;2023-11-19T10:55:37;31.00;;;5.85;;
58242;SDS011;50118;53.232;8.252;2023-11-19T10:58:06;31.35;;;5.88;;
58242;SDS011;50118;53.232;8.252;2023-11-19T11:03:25;29.17;;;6.03;;
58242;SDS011;50118;53.232;8.252;2023-11-19T11:05:52;27.55;;;5.35;;
58242;SDS011;50118;53.232;8.252;2023-11-19T11:08:19;31.02;;;5.75;;
58242;SDS011;50118;53.232;8.252;2023-11-19T11:10:48;26.95;;;5.43;;
58242;SDS011;50118;53.232;8.252;2023-11-19T11:13:18;25.33;;;5.18;;
58242;SDS011;50118;53.232;8.252;2023-11-19T11:15:44;27.42;;;5.68;;
58242;SDS011;50118;53.232;8.252;2023-11-19T11:18:12;30.85;;;5.47;;
58242;SDS011;50118;53.232;8.252;2023-11-19T11:20:38;32.03;;;5.15;;
58242;SDS011;50118;53.232;8.252;2023-11-19T11:31:26;28.92;;;6.03;;
58242;SDS011;50118;53.232;8.252;2023-11-19T11:34:26;29.50;;;5.55;;
58242;SDS011;50118;53.232;8.252;2023-11-19T11:39:33;29.20;;;5.75;;
58242;SDS011;50118;53.232;8.252;2023-11-19T11:50:07;29.58;;;5.40;;
58242;SDS011;50118;53.232;8.252;2023-11-19T11:52:33;28.40;;;5.55;;
58242;SDS011;50118;53.232;8.252;2023-11-19T11:55:04;29.23;;;5.32;;
58242;SDS011;50118;53.232;8.252;2023-11-19T11:57:36;25.27;;;4.70;;
58242;SDS011;50118;53.232;8.252;2023-11-19T12:00:02;31.42;;;5.35;;
58242;SDS011;50118;53.232;8.252;2023-11-19T12:02:30;29.83;;;5.32;;
58242;SDS011;50118;53.232;8.252;2023-11-19T12:04:55;31.55;;;5.43;;
58242;SDS011;50118;53.232;8.252;2023-11-19T12:07:22;25.85;;;4.88;;
58242;SDS011;50118;53.232;8.252;2023-11-19T12:09:51;28.65;;;4.85;;
58242;SDS011;50118;53.232;8.252;2023-11-19T12:12:22;24.55;;;4.65;;
58242;SDS011;50118;53.232;8.252;2023-11-19T12:15:01;22.20;;;4.80;;
58242;SDS011;50118;53.232;8.252;2023-11-19T12:20:00;22.77;;;4.68;;
58242;SDS011;50118;53.232;8.252;2023-11-19T12:22:26;28.33;;;5.43;;
58242;SDS011;50118;53.232;8.252;2023-11-19T12:24:53;26.75;;;5.47;;
58242;SDS011;50118;53.232;8.252;2023-11-19T12:27:19;23.17;;;4.70;;
58242;SDS011;50118;53.232;8.252;2023-11-19T12:29:47;22.77;;;5.07;;
58242;SDS011;50118;53.232;8.252;2023-11-19T12:32:13;20.90;;;4.70;;
58242;SDS011;50118;53.232;8.252;2023-11-19T12:34:38;21.52;;;4.30;;
58242;SDS011;50118;53.232;8.252;2023-11-19T12:37:04;17.55;;;3.75;;
58242;SDS011;50118;53.232;8.252;2023-11-19T12:39:30;18.00;;;4.22;;
58242;SDS011;50118;53.232;8.252;2023-11-19T12:41:55;18.25;;;3.63;;
58242;SDS011;50118;53.232;8.252;2023-11-19T12:44:24;18.25;;;3.60;;
58242;SDS011;50118;53.232;8.252;2023-11-19T12:46:59;18.00;;;3.85;;
58242;SDS011;50118;53.232;8.252;2023-11-19T12:49:28;20.60;;;4.10;;
58242;SDS011;50118;53.232;8.252;2023-11-19T12:51:54;16.58;;;3.55;;
58242;SDS011;50118;53.232;8.252;2023-11-19T12:54:19;16.85;;;3.25;;
58242;SDS011;50118;53.232;8.252;2023-11-19T12:56:51;15.75;;;3.65;;
58242;SDS011;50118;53.232;8.252;2023-11-19T12:59:17;15.63;;;3.70;;
58242;SDS011;50118;53.232;8.252;2023-11-19T13:01:53;13.52;;;2.95;;
58242;SDS011;50118;53.232;8.252;2023-11-19T13:04:22;14.07;;;3.30;;
58242;SDS011;50118;53.232;8.252;2023-11-19T13:06:49;15.50;;;3.35;;
58242;SDS011;50118;53.232;8.252;2023-11-19T13:09:21;15.15;;;3.10;;
58242;SDS011;50118;53.232;8.252;2023-11-19T13:11:49;17.63;;;3.60;;
58242;SDS011;50118;53.232;8.252;2023-11-19T13:14:14;12.63;;;3.00;;
58242;SDS011;50118;53.232;8.252;2023-11-19T13:16:40;17.30;;;3.15;;
58242;SDS011;50118;53.232;8.252;2023-11-19T13:19:05;16.30;;;3.45;;
58242;SDS011;50118;53.232;8.252;2023-11-19T13:21:31;14.63;;;3.03;;
58242;SDS011;50118;53.232;8.252;2023-11-19T13:23:57;17.05;;;3.30;;
58242;SDS011;50118;53.232;8.252;2023-11-19T13:26:22;14.05;;;3.00;;
58242;SDS011;50118;53.232;8.252;2023-11-19T13:28:48;14.73;;;3.28;;
58242;SDS011;50118;53.232;8.252;2023-11-19T13:31:14;21.10;;;3.60;;
58242;SDS011;50118;53.232;8.252;2023-11-19T13:33:39;19.08;;;3.47;;
58242;SDS011;50118;53.232;8.252;2023-11-19T13:36:05;15.68;;;3.13;;
58242;SDS011;50118;53.232;8.252;2023-11-19T13:38:32;19.48;;;3.60;;
58242;SDS011;50118;53.232;8.252;2023-11-19T13:41:00;13.60;;;2.97;;
58242;SDS011;50118;53.232;8.252;2023-11-19T13:43:25;18.00;;;3.28;;
58242;SDS011;50118;53.232;8.252;2023-11-19T13:45:53;15.82;;;3.42;;
58242;SDS011;50118;53.232;8.252;2023-11-19T13:48:19;19.25;;;3.92;;
58242;SDS011;50118;53.232;8.252;2023-11-19T13:50:44;15.15;;;3.47;;
58242;SDS011;50118;53.232;8.252;2023-11-19T13:53:10;20.17;;;3.65;;
58242;SDS011;50118;53.232;8.252;2023-11-19T13:55:36;16.88;;;3.95;;
58242;SDS011;50118;53.232;8.252;2023-11-19T13:58:01;18.48;;;3.85;;
58242;SDS011;50118;53.232;8.252;2023-11-19T14:00:26;16.67;;;3.30;;
58242;SDS011;50118;53.232;8.252;2023-11-19T14:02:52;17.10;;;3.25;;
58242;SDS011;50118;53.232;8.252;2023-11-19T14:05:17;19.45;;;4.85;;
58242;SDS011;50118;53.232;8.252;2023-11-19T14:07:43;19.55;;;4.03;;
58242;SDS011;50118;53.232;8.252;2023-11-19T14:10:09;21.70;;;4.13;;
58242;SDS011;50118;53.232;8.252;2023-11-19T14:12:36;19.92;;;4.20;;
58242;SDS011;50118;53.232;8.252;2023-11-19T14:15:02;22.83;;;4.60;;
58242;SDS011;50118;53.232;8.252;2023-11-19T14:17:30;20.45;;;4.05;;
58242;SDS011;50118;53.232;8.252;2023-11-19T14:19:56;17.77;;;3.90;;
58242;SDS011;50118;53.232;8.252;2023-11-19T14:22:21;22.40;;;3.83;;
58242;SDS011;50118;53.232;8.252;2023-11-19T14:24:47;20.10;;;4.25;;
58242;SDS011;50118;53.232;8.252;2023-11-19T14:27:12;16.70;;;3.95;;
58242;SDS011;50118;53.232;8.252;2023-11-19T14:29:38;18.90;;;3.83;;
58242;SDS011;50118;53.232;8.252;2023-11-19T14:32:04;19.67;;;3.80;;
58242;SDS011;50118;53.232;8.252;2023-11-19T14:34:30;22.48;;;4.20;;
58242;SDS011;50118;53.232;8.252;2023-11-19T14:36:57;17.85;;;3.95;;
58242;SDS011;50118;53.232;8.252;2023-11-19T14:39:22;20.92;;;4.13;;
58242;SDS011;50118;53.232;8.252;2023-11-19T14:41:48;20.83;;;4.05;;
58242;SDS011;50118;53.232;8.252;2023-11-19T14:44:14;17.67;;;3.85;;
58242;SDS011;50118;53.232;8.252;2023-11-19T14:46:40;19.02;;;3.80;;
58242;SDS011;50118;53.232;8.252;2023-11-19T14:49:05;21.15;;;3.95;;
58242;SDS011;50118;53.232;8.252;2023-11-19T14:51:35;20.38;;;3.88;;
58242;SDS011;50118;53.232;8.252;2023-11-19T14:54:01;17.13;;;3.78;;